Friday, November 17, 2017, 4:23 PM EST
Back to Local

KLBE, Latrobe / Westmorland

Location: Latrobe, PA, United States Lat: 40.283
Local Time: 4:23 PM EST (21:23 GMT) Lon: -79.4
Time Zone: US/Eastern Elev: 1184 ft

Show me the last for .
Show Decoded

2017-11-17 15:50 METAR KLBE 172050Z 21005KT 10SM SKC 05/M03 A3015 =
2017-11-17 14:50 METAR KLBE 171950Z 21005KT 10SM BKN060 05/M03 A3017 =
2017-11-17 13:50 METAR KLBE 171850Z 27006KT 10SM BKN060 05/M03 A3020 =
2017-11-17 12:50 METAR KLBE 171750Z 27006KT 10SM SKC 05/M03 A3022 =
2017-11-17 11:50 METAR KLBE 171650Z 28006KT 10SM SCT150 05/M03 A3024 =
2017-11-17 11:32 METAR KLBE 171632Z COR 00000KT 10SM SCT029 04/M03 A3025 RMK PRESFR =
2017-11-17 10:45 METAR KLBE 171545Z 22007KT 10SM OVC029 03/M03 A3029 =
2017-11-17 09:45 METAR KLBE 171445Z 29006KT 10SM OVC029 03/M03 A3029 =
2017-11-17 08:45 METAR KLBE 171345Z 32006KT 10SM OVC027 02/M03 A3028 =
2017-11-17 07:45 METAR KLBE 171245Z 31003KT 10SM OVC025 02/M03 A3026 =
2017-11-17 06:45 METAR KLBE 171145Z 31004KT 10SM OVC025 02/M02 A3024 =
2017-11-17 05:55 METAR KLBE 171055Z AUTO 31005KT 10SM OVC025 02/M03 A3022 RMK AO2 =
2017-11-17 05:35 METAR KLBE 171035Z AUTO 32004KT 10SM OVC025 02/M02 A3022 RMK AO2 =
2017-11-17 05:15 METAR KLBE 171015Z AUTO 29006KT 10SM OVC025 02/M02 A3021 RMK AO2 =
2017-11-17 04:55 METAR KLBE 170955Z AUTO 29006KT 10SM OVC027 02/M03 A3021 RMK AO2 =
2017-11-17 04:35 METAR KLBE 170935Z AUTO 29005KT 10SM OVC027 02/M03 A3020 RMK AO2 =
2017-11-17 04:15 METAR KLBE 170915Z AUTO 30006KT 10SM OVC027 03/M03 A3020 RMK AO2 =
2017-11-17 03:55 METAR KLBE 170855Z AUTO 29006KT 10SM OVC027 03/M03 A3020 RMK AO2 =
2017-11-17 03:35 METAR KLBE 170835Z AUTO 29007KT 10SM OVC027 03/M02 A3020 RMK AO2 =
2017-11-17 03:15 METAR KLBE 170815Z AUTO 31009KT 10SM OVC027 03/M02 A3020 RMK AO2 =
2017-11-17 02:55 METAR KLBE 170755Z AUTO 30006KT 10SM OVC027 03/M02 A3020 RMK AO2 =
2017-11-17 02:35 METAR KLBE 170735Z AUTO 28006KT 10SM OVC025 03/M01 A3021 RMK AO2 =
2017-11-17 02:15 METAR KLBE 170715Z AUTO 30007KT 10SM OVC025 03/M01 A3020 RMK AO2 =
2017-11-17 01:55 METAR KLBE 170655Z AUTO 28007KT 10SM OVC027 03/M01 A3019 RMK AO2 =
2017-11-17 01:35 METAR KLBE 170635Z AUTO 26004KT 10SM OVC029 03/00 A3019 RMK AO2 =
2017-11-17 01:15 METAR KLBE 170615Z AUTO 24006KT 10SM OVC031 03/00 A3019 RMK AO2 =
2017-11-17 00:55 METAR KLBE 170555Z AUTO 25005KT 10SM OVC033 03/00 A3019 RMK AO2 =
2017-11-17 00:35 METAR KLBE 170535Z AUTO 25005KT 10SM FEW026 OVC035 03/00 A3019 RMK AO2 =
2017-11-17 00:15 METAR KLBE 170515Z AUTO 25005KT 10SM FEW023 OVC033 03/00 A3019 RMK AO2 =
2017-11-16 23:55 METAR KLBE 170455Z AUTO 25005KT 10SM BKN024 OVC031 03/00 A3019 RMK AO2 =
2017-11-16 23:35 METAR KLBE 170435Z AUTO 25005KT 10SM BKN027 BKN033 OVC039 03/00 A3019 RMK AO2 =
2017-11-16 23:15 METAR KLBE 170415Z AUTO 23005KT 10SM FEW025 OVC037 03/00 A3018 RMK AO2 =
2017-11-16 22:55 METAR KLBE 170355Z AUTO 24005KT 10SM FEW025 OVC039 03/00 A3018 RMK AO2 =
2017-11-16 22:35 METAR KLBE 170335Z AUTO 23007KT 10SM FEW025 OVC039 03/00 A3018 RMK AO2 =
2017-11-16 22:15 METAR KLBE 170315Z AUTO 22008KT 10SM FEW031 OVC037 03/00 A3018 RMK AO2 =
2017-11-16 21:45 METAR KLBE 170245Z 24007KT 10SM OVC039 03/00 A3017 =
2017-11-16 20:45 METAR KLBE 170145Z 25012KT 10SM OVC037 03/00 A3016 =
2017-11-16 19:45 METAR KLBE 170045Z 27006KT 10SM BKN023 OVC037 03/00 A3015 =
2017-11-16 18:45 METAR KLBE 162345Z 28010G20KT 10SM BKN025 OVC033 03/00 A3014 =
2017-11-16 17:50 METAR KLBE 162250Z 28012G22KT 10SM OVC022 03/00 A3012 =
2017-11-16 16:45 METAR KLBE 162145Z 28015G25KT 10SM BKN025 OVC033 03/00 A3009 =

Support USWX by starting your Amazon purchase here.